createdAt,value
2023-01-18T00:00:14.176Z,0.62
2023-01-18T00:02:41.575Z,0.55
2023-01-18T00:05:09.622Z,0.63
2023-01-18T00:07:37.012Z,0.61
2023-01-18T00:10:07.120Z,0.62
2023-01-18T00:12:34.632Z,0.68
2023-01-18T00:15:01.999Z,0.73
2023-01-18T00:17:29.376Z,0.77
2023-01-18T00:19:56.742Z,0.78
2023-01-18T00:22:24.119Z,0.82
2023-01-18T00:24:51.525Z,0.76
2023-01-18T00:27:21.244Z,0.71
2023-01-18T00:29:48.631Z,0.71
2023-01-18T00:32:16.892Z,0.75
2023-01-18T00:34:44.255Z,0.74
2023-01-18T00:37:11.616Z,0.73
2023-01-18T00:39:40.786Z,0.87
2023-01-18T00:42:25.542Z,0.92
2023-01-18T00:44:54.229Z,0.88
2023-01-18T00:47:21.614Z,0.82
2023-01-18T00:49:49.038Z,0.87
2023-01-18T00:52:16.428Z,0.88
2023-01-18T00:54:43.818Z,1.02
2023-01-18T00:57:11.160Z,0.97
2023-01-18T00:59:38.561Z,0.98
2023-01-18T01:02:07.705Z,0.95
2023-01-18T01:04:52.602Z,0.96
2023-01-18T01:07:19.955Z,1.12
2023-01-18T01:09:47.315Z,1.17
2023-01-18T01:12:32.555Z,1.01
2023-01-18T01:15:17.222Z,0.98
2023-01-18T01:18:03.758Z,0.90
2023-01-18T01:20:48.497Z,0.99
2023-01-18T01:23:35.443Z,1.10
2023-01-18T01:26:06.010Z,1.26
2023-01-18T01:28:33.393Z,1.15
2023-01-18T01:31:02.758Z,1.02
2023-01-18T01:33:33.143Z,0.87
2023-01-18T01:36:03.120Z,0.79
2023-01-18T01:38:31.338Z,0.82
2023-01-18T01:41:00.376Z,0.70
2023-01-18T01:43:39.208Z,0.62
2023-01-18T01:46:15.717Z,0.65
2023-01-18T01:48:44.920Z,0.60
2023-01-18T01:51:12.724Z,0.70
2023-01-18T01:53:40.409Z,0.66
2023-01-18T01:56:08.500Z,0.67
2023-01-18T01:58:37.014Z,0.73
2023-01-18T02:01:04.419Z,0.97
2023-01-18T02:03:32.628Z,1.02
2023-01-18T02:06:14.771Z,1.09
2023-01-18T02:08:43.452Z,1.20
2023-01-18T02:11:10.812Z,1.12
2023-01-18T02:13:38.209Z,1.25
2023-01-18T02:16:14.509Z,1.13
2023-01-18T02:18:50.882Z,1.17
2023-01-18T02:21:21.165Z,1.25
2023-01-18T02:24:13.172Z,1.27
2023-01-18T02:27:04.020Z,1.21
2023-01-18T02:30:00.115Z,1.32
2023-01-18T02:32:43.310Z,1.22
2023-01-18T02:35:12.953Z,1.22
2023-01-18T02:37:49.212Z,1.23
2023-01-18T02:40:23.515Z,1.22
2023-01-18T02:43:08.199Z,1.25
2023-01-18T02:45:59.595Z,1.19
2023-01-18T02:48:33.667Z,1.14
2023-01-18T02:51:01.082Z,1.09
2023-01-18T02:53:28.697Z,1.22
2023-01-18T02:56:00.411Z,1.27
2023-01-18T02:58:32.148Z,1.26
2023-01-18T03:01:05.624Z,1.21
2023-01-18T03:03:33.351Z,1.18
2023-01-18T03:06:03.653Z,1.14
2023-01-18T03:08:36.371Z,1.33
2023-01-18T03:11:06.946Z,1.40
2023-01-18T03:14:00.317Z,1.34
2023-01-18T03:16:40.459Z,1.17
2023-01-18T03:19:32.680Z,1.34
2023-01-18T03:22:02.448Z,1.50
2023-01-18T03:24:30.313Z,1.50
2023-01-18T03:27:17.740Z,1.58
2023-01-18T03:30:04.491Z,1.47
2023-01-18T03:32:53.507Z,1.37
2023-01-18T03:35:27.214Z,1.38
2023-01-18T03:37:57.150Z,1.40
2023-01-18T03:40:29.585Z,1.37
2023-01-18T03:43:04.732Z,1.30
2023-01-18T03:45:37.380Z,1.29
2023-01-18T03:48:09.313Z,1.31
2023-01-18T03:50:43.679Z,1.32
2023-01-18T03:53:14.750Z,1.29
2023-01-18T03:55:46.950Z,1.29
2023-01-18T03:58:20.219Z,1.32
2023-01-18T04:00:47.750Z,1.42
2023-01-18T04:03:16.449Z,1.39
2023-01-18T04:05:43.897Z,1.40
2023-01-18T04:08:11.322Z,1.44
2023-01-18T04:10:38.672Z,1.50
2023-01-18T04:13:06.020Z,1.43
2023-01-18T04:15:33.361Z,1.51
2023-01-18T04:18:00.733Z,1.43
2023-01-18T04:20:29.434Z,1.34
2023-01-18T04:22:57.178Z,1.17
2023-01-18T04:25:24.748Z,1.09
2023-01-18T04:27:52.144Z,0.94
2023-01-18T04:30:19.546Z,0.85
2023-01-18T04:32:46.968Z,0.93
2023-01-18T04:35:14.785Z,1.15
2023-01-18T04:37:43.453Z,1.13
2023-01-18T04:40:12.323Z,0.82
2023-01-18T04:42:39.696Z,0.79
2023-01-18T04:45:08.225Z,0.65
2023-01-18T04:47:35.623Z,0.56
2023-01-18T04:50:03.021Z,0.65
2023-01-18T04:52:32.159Z,0.67
2023-01-18T04:55:00.878Z,0.64
2023-01-18T04:57:28.275Z,0.58
2023-01-18T04:59:55.626Z,0.62
2023-01-18T05:02:22.996Z,0.78
2023-01-18T05:04:50.378Z,0.78
2023-01-18T05:07:17.763Z,0.69
2023-01-18T05:09:45.163Z,0.62
2023-01-18T05:12:13.831Z,0.56
2023-01-18T05:14:41.244Z,0.82
2023-01-18T05:17:08.608Z,0.67
2023-01-18T05:19:36.001Z,0.68
2023-01-18T05:22:03.383Z,0.79
2023-01-18T05:24:31.067Z,0.94
2023-01-18T05:26:58.432Z,0.91
2023-01-18T05:29:27.211Z,0.90
2023-01-18T05:31:54.595Z,0.86
2023-01-18T05:34:22.411Z,0.85
2023-01-18T05:36:49.784Z,0.75
2023-01-18T05:39:17.170Z,0.72
2023-01-18T05:41:44.549Z,0.78
2023-01-18T05:44:12.754Z,0.76
2023-01-18T05:46:41.476Z,0.72
2023-01-18T05:49:08.898Z,0.65
2023-01-18T05:51:36.543Z,0.76
2023-01-18T05:54:04.101Z,0.84
2023-01-18T05:56:31.531Z,0.76
2023-01-18T05:58:58.943Z,0.65
2023-01-18T06:01:26.424Z,0.70
2023-01-18T06:03:55.239Z,0.73
2023-01-18T06:06:22.683Z,0.68
2023-01-18T06:08:50.052Z,0.70
2023-01-18T06:11:17.444Z,0.60
2023-01-18T06:13:44.808Z,0.62
2023-01-18T06:16:12.511Z,0.58
2023-01-18T06:18:41.368Z,0.60
2023-01-18T06:21:11.391Z,0.59
2023-01-18T06:23:38.983Z,0.67
2023-01-18T06:26:06.607Z,0.66
2023-01-18T06:28:34.103Z,0.67
2023-01-18T06:31:04.740Z,0.77
2023-01-18T06:33:32.197Z,0.90
2023-01-18T06:36:01.361Z,0.86
2023-01-18T06:38:31.214Z,0.83
2023-01-18T06:40:58.791Z,0.90
2023-01-18T06:43:26.151Z,0.94
2023-01-18T06:45:54.898Z,0.94
2023-01-18T06:48:23.944Z,0.96
2023-01-18T06:50:52.277Z,0.98
2023-01-18T06:53:20.253Z,1.00
2023-01-18T06:55:54.692Z,1.16
2023-01-18T06:58:22.230Z,1.33
2023-01-18T07:00:49.709Z,1.17
2023-01-18T07:03:17.121Z,1.33
2023-01-18T07:05:46.390Z,1.42
2023-01-18T07:08:13.797Z,1.26
2023-01-18T07:10:41.280Z,1.16
2023-01-18T07:13:09.980Z,1.27
2023-01-18T07:15:37.367Z,1.40
2023-01-18T07:18:05.105Z,1.55
2023-01-18T07:20:32.558Z,1.58
2023-01-18T07:23:00.358Z,1.55
2023-01-18T07:25:29.462Z,1.51
2023-01-18T07:27:57.960Z,1.60
2023-01-18T07:30:26.843Z,1.50
2023-01-18T07:32:54.461Z,1.66
2023-01-18T07:35:22.925Z,1.86
2023-01-18T07:37:52.154Z,1.99
2023-01-18T07:40:21.117Z,1.67
2023-01-18T07:42:49.008Z,1.54
2023-01-18T07:45:16.912Z,1.48
2023-01-18T07:47:46.410Z,1.45
2023-01-18T07:50:14.980Z,1.41
2023-01-18T07:52:42.389Z,1.45
2023-01-18T07:55:10.366Z,1.58
2023-01-18T07:57:37.647Z,1.52
2023-01-18T08:00:07.118Z,1.51
2023-01-18T08:02:35.181Z,1.49
2023-01-18T08:05:04.763Z,1.49
2023-01-18T08:07:33.190Z,1.50
2023-01-18T08:10:00.745Z,1.61
2023-01-18T08:12:28.526Z,1.72
2023-01-18T08:14:55.975Z,1.73
2023-01-18T08:17:23.346Z,1.70
2023-01-18T08:19:50.797Z,1.73
2023-01-18T08:22:19.865Z,1.76
2023-01-18T08:24:47.266Z,1.67
2023-01-18T08:27:14.650Z,1.71
2023-01-18T08:29:42.141Z,1.77
2023-01-18T08:32:09.729Z,1.88
2023-01-18T08:34:38.551Z,2.08
2023-01-18T08:37:06.667Z,2.27
2023-01-18T08:39:35.416Z,2.37
2023-01-18T08:42:02.802Z,2.32
2023-01-18T08:44:30.172Z,2.41
2023-01-18T08:46:57.595Z,2.32
2023-01-18T08:49:25.010Z,2.21
2023-01-18T08:51:52.650Z,2.25
2023-01-18T08:54:20.086Z,2.30
2023-01-18T08:56:48.784Z,2.33
2023-01-18T08:59:16.173Z,2.37
2023-01-18T09:01:43.641Z,2.29
2023-01-18T09:04:11.052Z,2.26
2023-01-18T09:06:38.565Z,2.28
2023-01-18T09:09:06.217Z,2.41
2023-01-18T09:11:33.637Z,2.46
2023-01-18T09:14:02.526Z,2.66
2023-01-18T09:16:31.138Z,2.63
2023-01-18T09:18:59.812Z,2.69
2023-01-18T09:21:28.974Z,2.75
2023-01-18T09:23:56.946Z,2.74
2023-01-18T09:26:24.356Z,2.79
2023-01-18T09:28:53.649Z,2.78
2023-01-18T09:31:24.841Z,2.68
2023-01-18T09:33:53.835Z,2.75
2023-01-18T09:36:26.290Z,2.75
2023-01-18T09:38:54.500Z,2.84
2023-01-18T09:41:26.645Z,3.03
2023-01-18T09:43:57.200Z,3.00
2023-01-18T09:46:27.928Z,2.98
2023-01-18T09:48:57.998Z,2.98
2023-01-18T09:51:31.984Z,2.88
2023-01-18T09:54:09.686Z,2.79
2023-01-18T09:56:43.780Z,2.77
2023-01-18T09:59:21.654Z,2.76
2023-01-18T10:01:51.969Z,2.78
2023-01-18T10:04:26.118Z,2.82
2023-01-18T10:06:56.310Z,2.84
2023-01-18T10:09:28.003Z,2.89
2023-01-18T10:11:59.653Z,2.77
2023-01-18T10:14:44.686Z,2.88
2023-01-18T10:17:17.739Z,2.78
2023-01-18T10:19:45.678Z,2.84
2023-01-18T10:22:21.688Z,2.81
2023-01-18T10:24:57.499Z,2.86
2023-01-18T10:27:36.674Z,2.85
2023-01-18T10:30:19.810Z,2.88
2023-01-18T10:32:54.850Z,3.01
2023-01-18T10:35:28.576Z,2.86
2023-01-18T10:38:00.405Z,2.91
2023-01-18T10:40:28.109Z,3.03
2023-01-18T10:43:00.362Z,2.93
2023-01-18T10:45:30.084Z,3.00
2023-01-18T10:48:06.652Z,2.89
2023-01-18T10:50:36.814Z,2.99
2023-01-18T10:53:25.556Z,3.00
2023-01-18T10:55:55.678Z,3.00
2023-01-18T10:58:30.378Z,3.13
2023-01-18T11:01:00.162Z,3.03
2023-01-18T11:03:29.454Z,2.97
2023-01-18T11:06:05.140Z,2.96
2023-01-18T11:08:34.445Z,2.89
2023-01-18T11:11:04.103Z,2.93
2023-01-18T11:13:35.448Z,2.89
2023-01-18T11:16:10.409Z,2.84
2023-01-18T11:18:40.201Z,2.75
2023-01-18T11:21:11.611Z,2.82
2023-01-18T11:23:41.980Z,2.82
2023-01-18T11:26:15.353Z,2.88
2023-01-18T11:28:49.891Z,2.98
2023-01-18T11:31:22.295Z,2.88
2023-01-18T11:33:53.402Z,2.70
2023-01-18T11:36:33.484Z,2.74
2023-01-18T11:39:19.771Z,2.79
2023-01-18T11:41:48.704Z,2.76
2023-01-18T11:44:22.584Z,2.70
2023-01-18T11:46:54.340Z,2.72
2023-01-18T11:49:32.357Z,2.71
2023-01-18T11:52:02.739Z,2.58
2023-01-18T11:54:35.560Z,2.56
2023-01-18T11:57:03.593Z,2.44
2023-01-18T11:59:31.824Z,2.71
2023-01-18T12:02:26.645Z,2.69
2023-01-18T12:05:17.644Z,2.67
2023-01-18T12:07:57.260Z,2.64
2023-01-18T12:10:26.781Z,2.51
2023-01-18T12:13:16.416Z,2.56
2023-01-18T12:15:58.252Z,2.61
2023-01-18T12:18:45.022Z,2.48
2023-01-18T12:21:19.877Z,2.59
2023-01-18T12:24:17.783Z,2.89
2023-01-18T12:26:52.227Z,2.86
2023-01-18T12:29:36.270Z,2.76
2023-01-18T12:32:15.474Z,2.93
2023-01-18T12:34:53.369Z,2.97
2023-01-18T12:37:31.072Z,3.00
2023-01-18T12:40:08.503Z,3.05
2023-01-18T12:42:50.465Z,2.80
2023-01-18T12:45:27.952Z,2.96
2023-01-18T12:48:06.411Z,3.08
2023-01-18T12:50:37.754Z,3.06
2023-01-18T12:53:12.366Z,2.95
2023-01-18T12:55:41.909Z,2.79
2023-01-18T12:58:17.653Z,2.65
2023-01-18T13:00:49.732Z,2.63
2023-01-18T13:03:20.684Z,2.63
2023-01-18T13:05:55.103Z,2.78
2023-01-18T13:08:34.658Z,2.71
2023-01-18T13:11:07.470Z,2.68
2023-01-18T13:13:35.772Z,2.62
2023-01-18T13:16:14.870Z,2.65
2023-01-18T13:18:54.341Z,2.59
2023-01-18T13:21:32.900Z,2.56
2023-01-18T13:24:17.643Z,2.46
2023-01-18T13:26:45.431Z,2.56
2023-01-18T13:29:17.707Z,2.46
2023-01-18T13:31:45.834Z,2.44
2023-01-18T13:34:29.627Z,2.43
2023-01-18T13:37:13.513Z,2.48
2023-01-18T13:39:48.717Z,2.51
2023-01-18T13:42:33.749Z,2.55
2023-01-18T13:45:15.126Z,2.41
2023-01-18T13:47:53.506Z,2.39
2023-01-18T13:50:41.292Z,2.37
2023-01-18T13:53:25.349Z,2.47
2023-01-18T13:56:33.142Z,2.43
2023-01-18T13:59:05.261Z,2.46
2023-01-18T14:01:36.289Z,2.40
2023-01-18T14:04:27.495Z,2.37
2023-01-18T14:06:58.595Z,2.45
2023-01-18T14:09:35.901Z,2.41
2023-01-18T14:12:04.172Z,2.35
2023-01-18T14:14:34.656Z,2.35
2023-01-18T14:17:07.345Z,2.46
2023-01-18T14:19:59.798Z,2.63
2023-01-18T14:22:39.269Z,2.65
2023-01-18T14:25:25.838Z,2.65
2023-01-18T14:28:04.061Z,2.61
2023-01-18T14:30:36.369Z,2.63
2023-01-18T14:33:09.489Z,2.48
2023-01-18T14:35:37.010Z,2.46
2023-01-18T14:38:17.753Z,2.74
2023-01-18T14:40:48.222Z,2.62
2023-01-18T14:43:19.378Z,2.75
2023-01-18T14:45:55.385Z,2.74
2023-01-18T14:48:25.077Z,2.57
2023-01-18T14:50:55.108Z,2.45
2023-01-18T14:53:26.671Z,2.36
2023-01-18T14:56:06.904Z,2.41
2023-01-18T14:58:38.381Z,2.47
2023-01-18T15:01:09.409Z,2.46
2023-01-18T15:03:37.182Z,2.43
2023-01-18T15:06:13.519Z,2.38
2023-01-18T15:08:43.675Z,2.32
2023-01-18T15:11:12.354Z,2.32
2023-01-18T15:13:49.011Z,2.46
2023-01-18T15:16:21.475Z,2.29
2023-01-18T15:18:50.227Z,2.38
2023-01-18T15:21:22.086Z,2.34
2023-01-18T15:23:52.319Z,2.23
2023-01-18T15:26:34.262Z,2.33
2023-01-18T15:29:08.609Z,2.42
2023-01-18T15:31:46.769Z,2.24
2023-01-18T15:34:16.341Z,2.33
2023-01-18T15:36:45.683Z,2.35
2023-01-18T15:39:13.740Z,2.24
2023-01-18T15:41:41.890Z,2.26
2023-01-18T15:44:30.935Z,2.26
2023-01-18T15:46:59.683Z,2.23
2023-01-18T15:49:27.433Z,2.23
2023-01-18T15:51:57.271Z,2.33
2023-01-18T15:54:27.614Z,2.16
2023-01-18T15:56:59.181Z,2.13
2023-01-18T15:59:28.430Z,2.23
2023-01-18T16:02:17.380Z,2.18
2023-01-18T16:04:45.306Z,2.24
2023-01-18T16:07:34.106Z,2.20
2023-01-18T16:10:27.689Z,2.22
2023-01-18T16:12:56.794Z,2.32
2023-01-18T16:15:26.531Z,2.28
2023-01-18T16:18:02.387Z,2.46
2023-01-18T16:20:32.152Z,2.30
2023-01-18T16:23:08.443Z,2.22
2023-01-18T16:25:37.516Z,2.35
2023-01-18T16:28:05.614Z,2.20
2023-01-18T16:30:36.590Z,2.30
2023-01-18T16:33:10.436Z,2.06
2023-01-18T16:35:41.607Z,2.25
2023-01-18T16:38:12.974Z,2.23
2023-01-18T16:40:42.901Z,2.22
2023-01-18T16:43:22.459Z,2.29
2023-01-18T16:45:51.566Z,2.28
2023-01-18T16:48:21.663Z,2.26
2023-01-18T16:50:49.728Z,2.14
2023-01-18T16:53:17.381Z,2.21
2023-01-18T16:55:47.636Z,2.06
2023-01-18T16:58:17.016Z,2.08
2023-01-18T17:00:51.882Z,1.98
2023-01-18T17:03:20.785Z,1.96
2023-01-18T17:05:48.160Z,1.86
2023-01-18T17:08:17.090Z,1.84
2023-01-18T17:10:46.911Z,1.87
2023-01-18T17:13:14.643Z,1.94
2023-01-18T17:15:45.141Z,1.86
2023-01-18T17:18:14.860Z,1.96
2023-01-18T17:20:43.846Z,2.01
2023-01-18T17:23:11.489Z,1.85
2023-01-18T17:25:40.198Z,1.79
2023-01-18T17:28:08.477Z,1.90
2023-01-18T17:30:36.506Z,1.80
2023-01-18T17:33:04.077Z,1.87
2023-01-18T17:35:32.067Z,1.88
2023-01-18T17:38:05.723Z,1.98
2023-01-18T17:40:43.433Z,1.93
2023-01-18T17:43:15.181Z,1.84
2023-01-18T17:45:51.278Z,1.86
2023-01-18T17:48:25.921Z,1.82
2023-01-18T17:50:54.179Z,1.90
2023-01-18T17:53:22.901Z,1.82
2023-01-18T17:55:50.635Z,1.75
2023-01-18T17:58:18.113Z,1.87
2023-01-18T18:00:45.619Z,1.73
2023-01-18T18:03:13.541Z,1.55
2023-01-18T18:05:40.893Z,1.72
2023-01-18T18:08:09.084Z,1.68
2023-01-18T18:10:37.768Z,1.80
2023-01-18T18:13:05.145Z,1.84
2023-01-18T18:15:32.540Z,2.03
2023-01-18T18:17:59.928Z,1.95
2023-01-18T18:20:27.280Z,1.81
2023-01-18T18:22:54.830Z,1.71
2023-01-18T18:25:22.501Z,1.64
2023-01-18T18:27:51.228Z,1.84
2023-01-18T18:30:18.905Z,1.55
2023-01-18T18:32:46.492Z,1.62
2023-01-18T18:35:25.058Z,1.63
2023-01-18T18:37:53.715Z,1.73
2023-01-18T18:40:24.369Z,1.69
2023-01-18T18:43:01.974Z,1.61
2023-01-18T18:45:30.975Z,1.56
2023-01-18T18:47:58.381Z,1.60
2023-01-18T18:50:26.084Z,1.36
2023-01-18T18:52:53.532Z,1.38
2023-01-18T18:55:20.969Z,1.38
2023-01-18T18:57:48.387Z,1.60
2023-01-18T19:00:18.126Z,1.63
2023-01-18T19:02:45.567Z,1.56
2023-01-18T19:05:14.354Z,1.64
2023-01-18T19:07:42.399Z,1.72
2023-01-18T19:10:13.323Z,1.37
2023-01-18T19:12:40.708Z,1.36
2023-01-18T19:15:09.192Z,1.50
2023-01-18T19:17:38.008Z,1.60
2023-01-18T19:20:07.471Z,1.41
2023-01-18T19:22:37.944Z,1.32
2023-01-18T19:25:06.344Z,1.41
2023-01-18T19:27:33.727Z,1.18
2023-01-18T19:30:01.122Z,1.25
2023-01-18T19:32:28.519Z,1.37
2023-01-18T19:34:57.248Z,1.21
2023-01-18T19:37:24.611Z,1.40
2023-01-18T19:39:51.995Z,1.36
2023-01-18T19:42:19.371Z,1.56
2023-01-18T19:44:46.976Z,1.63
2023-01-18T19:47:14.414Z,1.40
2023-01-18T19:49:43.068Z,1.41
2023-01-18T19:52:11.808Z,1.40
2023-01-18T19:54:39.161Z,1.34
2023-01-18T19:57:07.378Z,1.67
2023-01-18T19:59:34.752Z,1.46
2023-01-18T20:02:02.351Z,1.23
2023-01-18T20:04:29.874Z,1.15
2023-01-18T20:06:57.359Z,1.25
2023-01-18T20:09:35.109Z,1.12
2023-01-18T20:12:12.420Z,1.14
2023-01-18T20:14:41.884Z,1.20
2023-01-18T20:17:09.925Z,1.29
2023-01-18T20:19:37.178Z,1.27
2023-01-18T20:22:04.556Z,1.30
2023-01-18T20:24:33.259Z,1.28
2023-01-18T20:27:14.977Z,1.31
2023-01-18T20:29:43.312Z,1.39
2023-01-18T20:32:16.188Z,1.49
2023-01-18T20:34:46.388Z,1.34
2023-01-18T20:37:14.406Z,1.38
2023-01-18T20:39:43.192Z,1.29
2023-01-18T20:42:10.799Z,1.17
2023-01-18T20:44:38.314Z,1.51
2023-01-18T20:47:05.792Z,1.36
2023-01-18T20:49:38.332Z,1.39
2023-01-18T20:52:06.554Z,1.49
2023-01-18T20:54:35.697Z,1.37
2023-01-18T20:57:05.796Z,1.32
2023-01-18T20:59:33.460Z,1.32
2023-01-18T21:02:01.486Z,1.33
2023-01-18T21:04:28.980Z,1.32
2023-01-18T21:06:57.157Z,1.32
2023-01-18T21:09:24.749Z,1.50
2023-01-18T21:11:52.121Z,1.55
2023-01-18T21:14:20.903Z,1.54
2023-01-18T21:16:48.360Z,1.57
2023-01-18T21:19:15.951Z,1.40
2023-01-18T21:21:44.555Z,1.48
2023-01-18T21:24:11.963Z,1.63
2023-01-18T21:26:39.350Z,1.63
2023-01-18T21:29:06.949Z,1.40
2023-01-18T21:31:35.673Z,1.55
2023-01-18T21:34:03.114Z,1.54
2023-01-18T21:36:30.527Z,1.34
2023-01-18T21:38:58.705Z,1.33
2023-01-18T21:41:43.878Z,1.36
2023-01-18T21:44:29.526Z,1.03
2023-01-18T21:46:58.824Z,1.10
2023-01-18T21:50:11.280Z,1.16
2023-01-18T21:52:49.130Z,1.08
2023-01-18T21:55:16.933Z,1.30
2023-01-18T21:57:44.322Z,1.33
2023-01-18T22:00:13.135Z,1.31
2023-01-18T22:02:41.846Z,1.06
2023-01-18T22:05:09.961Z,1.12
2023-01-18T22:07:37.350Z,0.78
2023-01-18T22:10:06.987Z,0.86
2023-01-18T22:12:38.727Z,0.96
2023-01-18T22:15:07.058Z,1.08
2023-01-18T22:17:34.638Z,1.03
2023-01-18T22:20:04.489Z,0.95
2023-01-18T22:22:31.836Z,0.84
2023-01-18T22:25:00.144Z,0.93
2023-01-18T22:27:27.619Z,0.66
2023-01-18T22:29:54.978Z,0.59
2023-01-18T22:32:22.402Z,0.83
2023-01-18T22:34:49.762Z,0.82
2023-01-18T22:37:18.453Z,0.49
2023-01-18T22:39:45.826Z,0.58
2023-01-18T22:42:13.185Z,0.62
2023-01-18T22:44:40.637Z,0.59
2023-01-18T22:47:08.035Z,0.72
2023-01-18T22:49:35.409Z,0.67
2023-01-18T22:52:02.798Z,0.63
2023-01-18T22:54:31.516Z,0.46
2023-01-18T22:56:58.941Z,0.45
2023-01-18T22:59:26.374Z,0.51
2023-01-18T23:01:53.727Z,0.50
2023-01-18T23:04:21.114Z,0.47
2023-01-18T23:06:50.589Z,0.56
2023-01-18T23:09:18.518Z,0.44
2023-01-18T23:11:47.883Z,0.50
2023-01-18T23:14:32.851Z,0.39
2023-01-18T23:17:17.729Z,0.30
2023-01-18T23:19:45.136Z,0.23
2023-01-18T23:22:12.598Z,-0.04
2023-01-18T23:24:40.521Z,0.25
2023-01-18T23:27:09.934Z,0.10
2023-01-18T23:29:37.544Z,0.18
2023-01-18T23:32:05.662Z,0.31
2023-01-18T23:34:32.943Z,0.45
2023-01-18T23:37:00.294Z,0.11
2023-01-18T23:39:45.463Z,0.10
2023-01-18T23:42:31.927Z,-0.03
2023-01-18T23:45:16.518Z,0.01
2023-01-18T23:48:01.698Z,0.09
2023-01-18T23:50:46.893Z,-0.09
2023-01-18T23:53:32.789Z,-0.19
2023-01-18T23:56:00.486Z,-0.21
2023-01-18T23:58:29.172Z,-0.22
